createdAt,value
2022-09-05T00:00:11.925Z,100213.16
2022-09-05T00:01:39.547Z,100218.69
2022-09-05T00:03:00.527Z,100218.28
2022-09-05T00:04:23.577Z,100215.66
2022-09-05T00:05:44.240Z,100210.66
2022-09-05T00:07:06.749Z,100205.75
2022-09-05T00:08:25.397Z,100215.41
2022-09-05T00:09:49.051Z,100211.59
2022-09-05T00:11:41.157Z,100216.50
2022-09-05T00:12:39.442Z,100217.34
2022-09-05T00:13:48.015Z,100214.31
2022-09-05T00:15:16.423Z,100217.59
2022-09-05T00:16:25.281Z,100220.56
2022-09-05T00:18:26.274Z,100214.09
2022-09-05T00:24:19.237Z,100209.44
2022-09-05T00:24:25.115Z,100210.19
2022-09-05T00:24:28.689Z,100211.03
2022-09-05T00:25:14.040Z,100215.06
2022-09-05T00:26:49.978Z,100203.50
2022-09-05T00:27:58.237Z,100206.03
2022-09-05T00:29:28.876Z,100211.47
2022-09-05T00:31:51.938Z,100204.97
2022-09-05T00:32:33.676Z,100194.81
2022-09-05T00:33:55.550Z,100204.97
2022-09-05T00:35:28.249Z,100207.63
2022-09-05T00:36:45.318Z,100198.75
2022-09-05T00:37:49.471Z,100197.78
2022-09-05T00:39:01.581Z,100192.50
2022-09-05T00:40:22.554Z,100194.09
2022-09-05T00:41:24.878Z,100188.66
2022-09-05T00:42:26.537Z,100194.19
2022-09-05T00:43:35.025Z,100183.38
2022-09-05T00:44:54.766Z,100190.16
2022-09-05T00:45:59.137Z,100184.22
2022-09-05T00:47:18.359Z,100197.56
2022-09-05T00:48:31.870Z,100196.75
2022-09-05T00:49:43.596Z,100189.84
2022-09-05T00:50:45.148Z,100189.06
2022-09-05T00:52:00.645Z,100185.38
2022-09-05T00:53:22.027Z,100185.16
2022-09-05T00:54:26.355Z,100188.66
2022-09-05T00:55:58.774Z,100186.22
2022-09-05T00:57:22.223Z,100191.94
2022-09-05T00:58:42.440Z,100152.88
2022-09-05T01:00:16.965Z,100185.91
2022-09-05T01:01:29.822Z,100184.56
2022-09-05T01:02:33.368Z,100192.50
2022-09-05T01:04:00.970Z,100194.38
2022-09-05T01:05:23.159Z,100191.22
2022-09-05T01:07:02.126Z,100183.16
2022-09-05T01:08:06.783Z,100184.22
2022-09-05T01:09:26.136Z,100185.94
2022-09-05T01:10:48.312Z,100183.38
2022-09-05T01:11:59.526Z,100163.88
2022-09-05T01:13:13.378Z,100188.66
2022-09-05T01:14:46.495Z,100179.66
2022-09-05T01:15:57.096Z,100175.84
2022-09-05T01:17:04.534Z,100180.19
2022-09-05T01:18:10.073Z,100173.50
2022-09-05T01:19:38.017Z,100180.41
2022-09-05T01:21:10.838Z,100179.56
2022-09-05T01:22:38.902Z,100178.47
2022-09-05T01:23:55.638Z,100177.66
2022-09-05T01:25:18.463Z,100144.78
2022-09-05T01:26:26.203Z,100183.56
2022-09-05T01:29:12.910Z,100183.78
2022-09-05T01:29:25.528Z,100185.94
2022-09-05T01:31:08.910Z,100187.53
2022-09-05T01:32:41.597Z,100190.91
2022-09-05T01:34:04.962Z,100191.00
2022-09-05T01:35:28.364Z,100186.88
2022-09-05T01:36:51.815Z,100190.56
2022-09-05T01:38:07.656Z,100189.53
2022-09-05T01:40:11.201Z,100186.75
2022-09-05T01:40:46.923Z,100190.06
2022-09-05T01:42:25.785Z,100188.13
2022-09-05T01:43:52.597Z,100189.72
2022-09-05T01:45:04.437Z,100184.00
2022-09-05T01:46:31.519Z,100191.84
2022-09-05T01:47:54.773Z,100185.06
2022-09-05T01:49:25.749Z,100194.63
2022-09-05T01:50:50.501Z,100199.06
2022-09-05T01:52:30.769Z,100188.56
2022-09-05T01:53:46.447Z,100185.06
2022-09-05T01:55:19.980Z,100187.72
2022-09-05T01:56:31.599Z,100187.59
2022-09-05T01:58:17.072Z,100186.66
2022-09-05T01:59:30.873Z,100190.16
2022-09-05T02:00:56.608Z,100193.75
2022-09-05T02:02:50.289Z,100192.28
2022-09-05T02:04:18.110Z,100189.84
2022-09-05T02:05:48.163Z,100180.28
2022-09-05T02:07:22.491Z,100190.03
2022-09-05T02:08:48.262Z,100223.13
2022-09-05T02:09:49.743Z,100192.91
2022-09-05T02:11:14.914Z,100184.53
2022-09-05T02:12:16.645Z,100187.06
2022-09-05T02:13:33.414Z,100192.47
2022-09-05T02:14:45.583Z,100192.22
2022-09-05T02:16:00.232Z,100199.28
2022-09-05T02:17:31.981Z,100194.41
2022-09-05T02:19:01.169Z,100199.56
2022-09-05T02:20:35.269Z,100236.47
2022-09-05T02:21:56.692Z,100189.41
2022-09-05T02:23:32.668Z,100188.34
2022-09-05T02:24:34.512Z,100196.50
2022-09-05T02:26:26.106Z,100194.28
2022-09-05T02:28:05.879Z,100196.59
2022-09-05T02:29:35.254Z,100200.31
2022-09-05T02:30:47.408Z,100192.59
2022-09-05T02:32:21.929Z,100193.53
2022-09-05T02:33:36.414Z,100195.66
2022-09-05T02:34:43.650Z,100194.59
2022-09-05T02:36:00.224Z,100205.81
2022-09-05T02:37:21.524Z,100195.13
2022-09-05T02:44:39.462Z,100194.28
2022-09-05T02:45:10.845Z,100199.91
2022-09-05T02:45:19.504Z,100191.41
2022-09-05T02:45:21.235Z,100189.63
2022-09-05T02:45:43.535Z,100194.72
2022-09-05T02:46:48.293Z,100195.78
2022-09-05T02:48:15.398Z,100195.00
2022-09-05T02:53:13.878Z,100185.78
2022-09-05T02:56:18.517Z,100189.09
2022-09-05T02:57:30.282Z,100188.13
2022-09-05T02:57:42.130Z,100195.84
2022-09-05T02:58:04.260Z,100195.84
2022-09-05T02:58:04.817Z,100186.94
2022-09-05T02:59:10.314Z,100192.47
2022-09-05T03:00:18.527Z,100195.22
2022-09-05T03:01:31.731Z,100189.28
2022-09-05T03:02:53.211Z,100195.78
2022-09-05T03:04:21.899Z,100190.78
2022-09-05T03:05:29.735Z,100184.00
2022-09-05T03:06:48.534Z,100197.25
2022-09-05T03:08:19.425Z,100190.66
2022-09-05T03:09:38.409Z,100178.06
2022-09-05T03:11:04.330Z,100191.84
2022-09-05T03:12:29.388Z,100191.09
2022-09-05T03:14:08.515Z,100193.56
2022-09-05T03:15:22.264Z,100183.78
2022-09-05T03:16:52.941Z,100191.44
2022-09-05T03:18:20.587Z,100185.16
2022-09-05T03:19:56.880Z,100186.97
2022-09-05T03:21:09.187Z,100189.28
2022-09-05T03:22:17.373Z,100182.94
2022-09-05T03:24:01.918Z,100175.72
2022-09-05T03:25:28.469Z,100175.50
2022-09-05T03:27:03.798Z,100184.00
2022-09-05T03:28:14.595Z,100175.38
2022-09-05T03:29:35.154Z,100173.50
2022-09-05T03:31:22.434Z,100175.19
2022-09-05T03:32:58.553Z,100177.22
2022-09-05T03:34:18.388Z,100182.72
2022-09-05T03:35:32.404Z,100188.66
2022-09-05T03:36:36.807Z,100174.88
2022-09-05T03:37:38.378Z,100180.31
2022-09-05T03:38:48.787Z,100174.59
2022-09-05T03:40:29.145Z,100179.88
2022-09-05T03:42:00.409Z,100177.66
2022-09-05T03:43:40.340Z,100170.03
2022-09-05T03:45:06.355Z,100179.09
2022-09-05T03:46:23.184Z,100178.38
2022-09-05T03:48:00.635Z,100178.44
2022-09-05T03:53:11.500Z,100177.63
2022-09-05T03:57:07.071Z,100181.53
2022-09-05T03:57:12.691Z,100178.97
2022-09-05T03:57:17.060Z,100177.59
2022-09-05T03:57:26.007Z,100181.00
2022-09-05T03:58:55.913Z,100178.53
2022-09-05T04:00:09.723Z,100179.06
2022-09-05T04:05:15.234Z,100174.19
2022-09-05T04:08:10.607Z,100198.88
2022-09-05T04:08:14.182Z,100182.03
2022-09-05T04:08:17.690Z,100172.50
2022-09-05T04:08:38.578Z,100180.44
2022-09-05T04:09:51.533Z,100182.03
2022-09-05T04:11:01.077Z,100164.34
2022-09-05T04:12:18.156Z,100185.09
2022-09-05T04:13:35.794Z,100175.84
2022-09-05T04:14:53.123Z,100175.44
2022-09-05T04:16:16.646Z,100184.03
2022-09-05T04:17:43.409Z,100183.47
2022-09-05T04:18:48.675Z,100180.28
2022-09-05T04:19:55.741Z,100182.31
2022-09-05T04:21:05.007Z,100170.13
2022-09-05T04:22:22.828Z,100180.78
2022-09-05T04:23:45.772Z,100173.69
2022-09-05T04:25:04.629Z,100178.38
2022-09-05T04:26:15.157Z,100175.78
2022-09-05T04:27:40.084Z,100178.06
2022-09-05T04:28:56.919Z,100179.84
2022-09-05T04:30:01.372Z,100176.91
2022-09-05T04:31:24.897Z,100183.47
2022-09-05T04:32:35.379Z,100184.22
2022-09-05T04:33:54.528Z,100184.97
2022-09-05T04:35:06.857Z,100182.31
2022-09-05T04:36:30.354Z,100177.25
2022-09-05T04:38:13.196Z,100186.56
2022-09-05T04:39:17.553Z,100188.78
2022-09-05T04:40:38.210Z,100190.69
2022-09-05T04:41:44.560Z,100192.97
2022-09-05T04:42:46.956Z,100194.97
2022-09-05T04:43:51.154Z,100195.41
2022-09-05T04:45:03.392Z,100205.50
2022-09-05T04:46:19.538Z,100202.53
2022-09-05T04:47:29.782Z,100199.47
2022-09-05T04:48:41.900Z,100193.97
2022-09-05T04:49:52.969Z,100203.56
2022-09-05T04:51:12.847Z,100206.09
2022-09-05T04:52:32.577Z,100199.13
2022-09-05T04:54:00.917Z,100201.22
2022-09-05T04:55:13.513Z,100211.06
2022-09-05T04:56:20.194Z,100210.50
2022-09-05T04:57:33.756Z,100209.94
2022-09-05T04:59:41.859Z,100213.91
2022-09-05T05:04:49.412Z,100222.22
2022-09-05T05:06:14.075Z,100229.13
2022-09-05T05:06:16.895Z,100233.94
2022-09-05T05:06:18.707Z,100222.81
2022-09-05T05:06:42.205Z,100236.41
2022-09-05T05:07:57.549Z,100233.19
2022-09-05T05:09:12.235Z,100239.50
2022-09-05T05:13:56.921Z,100241.75
2022-09-05T05:17:53.919Z,100250.53
2022-09-05T05:17:58.201Z,100253.44
2022-09-05T05:18:04.179Z,100264.50
2022-09-05T05:18:15.778Z,100259.31
2022-09-05T05:18:36.728Z,100259.47
2022-09-05T05:19:47.337Z,100268.25
2022-09-05T05:21:21.014Z,100265.78
2022-09-05T05:22:22.780Z,100269.41
2022-09-05T05:23:41.392Z,100268.66
2022-09-05T05:24:50.794Z,100276.56
2022-09-05T05:25:57.970Z,100272.97
2022-09-05T05:27:17.099Z,100275.59
2022-09-05T05:28:27.230Z,100272.97
2022-09-05T05:29:47.200Z,100279.28
2022-09-05T05:30:50.567Z,100237.78
2022-09-05T05:32:00.244Z,100279.56
2022-09-05T05:33:22.551Z,100283.22
2022-09-05T05:34:27.975Z,100281.59
2022-09-05T05:35:33.256Z,100279.78
2022-09-05T05:36:50.373Z,100284.00
2022-09-05T05:38:20.337Z,100288.22
2022-09-05T05:39:28.407Z,100283.81
2022-09-05T05:40:37.571Z,100285.59
2022-09-05T05:41:54.069Z,100285.53
2022-09-05T05:43:15.090Z,100287.13
2022-09-05T05:44:20.553Z,100279.97
2022-09-05T05:45:32.598Z,100289.50
2022-09-05T05:46:38.172Z,100276.56
2022-09-05T05:47:45.734Z,100291.84
2022-09-05T05:48:55.133Z,100287.34
2022-09-05T05:50:04.487Z,100288.78
2022-09-05T05:52:02.250Z,100289.59
2022-09-05T05:53:32.048Z,100288.50
2022-09-05T05:55:27.086Z,100292.63
2022-09-05T05:56:41.819Z,100294.16
2022-09-05T05:58:17.104Z,100284.31
2022-09-05T06:00:15.002Z,100295.47
2022-09-05T06:01:44.415Z,100292.75
2022-09-05T06:03:25.194Z,100294.34
2022-09-05T06:04:46.137Z,100294.53
2022-09-05T06:06:12.408Z,100294.69
2022-09-05T06:08:10.227Z,100296.75
2022-09-05T06:14:37.537Z,100295.03
2022-09-05T06:14:57.481Z,100296.69
2022-09-05T06:15:00.480Z,100303.22
2022-09-05T06:15:09.089Z,100294.16
2022-09-05T06:16:32.028Z,100295.91
2022-09-05T06:17:52.111Z,100295.28
2022-09-05T06:19:36.257Z,100269.09
2022-09-05T06:22:11.512Z,100303.44
2022-09-05T06:23:37.445Z,100295.28
2022-09-05T06:25:26.421Z,100300.00
2022-09-05T06:26:49.235Z,100257.28
2022-09-05T06:28:18.895Z,100289.72
2022-09-05T06:29:42.836Z,100293.47
2022-09-05T06:30:59.270Z,100295.13
2022-09-05T06:32:58.097Z,100298.50
2022-09-05T06:34:58.115Z,100294.59
2022-09-05T06:36:10.401Z,100286.84
2022-09-05T06:37:27.011Z,100293.84
2022-09-05T06:38:37.275Z,100290.00
2022-09-05T06:39:54.294Z,100291.44
2022-09-05T06:41:38.327Z,100295.28
2022-09-05T06:43:01.591Z,100290.06
2022-09-05T06:44:19.204Z,100286.97
2022-09-05T06:45:33.089Z,100290.94
2022-09-05T06:46:55.160Z,100283.84
2022-09-05T06:48:46.421Z,100286.50
2022-09-05T06:50:27.945Z,100283.19
2022-09-05T06:51:29.684Z,100284.41
2022-09-05T06:52:59.363Z,100295.53
2022-09-05T06:54:27.445Z,100294.25
2022-09-05T06:55:54.478Z,100292.00
2022-09-05T06:57:11.590Z,100289.31
2022-09-05T06:58:50.983Z,100292.41
2022-09-05T07:00:22.031Z,100294.38
2022-09-05T07:01:32.659Z,100290.34
2022-09-05T07:03:28.889Z,100286.56
2022-09-05T07:05:36.982Z,100291.97
2022-09-05T07:06:04.728Z,100282.25
2022-09-05T07:07:22.803Z,100268.69
2022-09-05T07:08:37.230Z,100301.41
2022-09-05T07:10:22.047Z,100301.84
2022-09-05T07:11:38.705Z,100300.47
2022-09-05T07:12:51.966Z,100303.69
2022-09-05T07:14:00.247Z,100300.69
2022-09-05T07:15:08.382Z,100312.47
2022-09-05T07:16:26.470Z,100296.81
2022-09-05T07:18:13.484Z,100308.59
2022-09-05T07:19:25.456Z,100301.56
2022-09-05T07:20:34.316Z,100312.31
2022-09-05T07:22:44.477Z,100308.59
2022-09-05T07:24:02.298Z,100309.88
2022-09-05T07:25:09.263Z,100311.72
2022-09-05T07:26:20.457Z,100308.00
2022-09-05T07:28:29.706Z,100304.81
2022-09-05T07:29:19.409Z,100307.03
2022-09-05T07:30:23.282Z,100308.94
2022-09-05T07:31:37.690Z,100316.09
2022-09-05T07:32:46.025Z,100305.72
2022-09-05T07:33:51.459Z,100308.81
2022-09-05T07:34:53.978Z,100314.84
2022-09-05T07:36:05.440Z,100313.16
2022-09-05T07:37:16.400Z,100308.84
2022-09-05T07:38:26.717Z,100310.25
2022-09-05T07:40:02.397Z,100315.34
2022-09-05T07:41:28.357Z,100312.00
2022-09-05T07:42:43.768Z,100308.59
2022-09-05T07:43:57.981Z,100314.41
2022-09-05T07:45:06.414Z,100315.25
2022-09-05T07:46:23.278Z,100314.13
2022-09-05T07:47:24.842Z,100315.16
2022-09-05T07:48:34.797Z,100317.50
2022-09-05T07:50:13.967Z,100313.91
2022-09-05T07:55:45.060Z,100318.22
2022-09-05T07:57:05.033Z,100314.94
2022-09-05T07:57:06.158Z,100319.91
2022-09-05T07:57:09.518Z,100322.25
2022-09-05T07:57:26.926Z,100308.16
2022-09-05T07:58:17.229Z,100318.53
2022-09-05T07:59:20.916Z,100312.56
2022-09-05T08:00:29.413Z,100321.31
2022-09-05T08:01:32.957Z,100319.28
2022-09-05T08:02:47.054Z,100313.47
2022-09-05T08:03:56.119Z,100323.16
2022-09-05T08:05:04.350Z,100322.03
2022-09-05T08:06:10.585Z,100323.81
2022-09-05T08:07:45.911Z,100318.13
2022-09-05T08:09:21.591Z,100323.03
2022-09-05T08:11:15.810Z,100317.88
2022-09-05T08:12:09.771Z,100324.50
2022-09-05T08:13:23.827Z,100316.91
2022-09-05T08:14:48.813Z,100326.06
2022-09-05T08:16:10.592Z,100311.84
2022-09-05T08:17:19.939Z,100326.50
2022-09-05T08:18:50.247Z,100318.69
2022-09-05T08:20:23.735Z,100321.16
2022-09-05T08:21:49.839Z,100316.25
2022-09-05T08:23:04.677Z,100316.34
2022-09-05T08:24:24.643Z,100324.19
2022-09-05T08:25:57.371Z,100325.81
2022-09-05T08:27:02.512Z,100289.34
2022-09-05T08:28:06.246Z,100327.63
2022-09-05T08:29:27.125Z,100325.97
2022-09-05T08:30:33.366Z,100327.03
2022-09-05T08:31:42.357Z,100327.31
2022-09-05T08:33:10.392Z,100330.56
2022-09-05T08:34:27.709Z,100345.47
2022-09-05T08:35:49.309Z,100339.88
2022-09-05T08:36:56.815Z,100328.16
2022-09-05T08:37:59.703Z,100330.63
2022-09-05T08:39:04.189Z,100331.59
2022-09-05T08:40:29.053Z,100331.66
2022-09-05T08:42:05.511Z,100331.13
2022-09-05T08:46:37.879Z,100327.41
2022-09-05T08:46:41.810Z,100328.75
2022-09-05T08:46:49.789Z,100333.09
2022-09-05T08:48:13.709Z,100333.91
2022-09-05T08:49:46.147Z,100273.69
2022-09-05T08:50:50.994Z,100335.78
2022-09-05T08:51:57.105Z,100333.00
2022-09-05T08:53:28.169Z,100332.06
2022-09-05T08:55:07.321Z,100334.06
2022-09-05T08:56:20.835Z,100332.44
2022-09-05T08:57:51.633Z,100336.25
2022-09-05T08:59:31.457Z,100331.28
2022-09-05T09:00:42.894Z,100334.63
2022-09-05T09:02:45.524Z,100333.13
2022-09-05T09:03:29.271Z,100337.25
2022-09-05T09:05:02.250Z,100336.50
2022-09-05T09:06:27.928Z,100332.09
2022-09-05T09:07:51.498Z,100339.75
2022-09-05T09:09:05.330Z,100335.59
2022-09-05T09:10:13.377Z,100341.91
2022-09-05T09:11:32.343Z,100340.16
2022-09-05T09:12:53.068Z,100335.38
2022-09-05T09:14:23.395Z,100337.22
2022-09-05T09:15:35.289Z,100336.72
2022-09-05T09:16:54.656Z,100332.72
2022-09-05T09:17:56.299Z,100336.69
2022-09-05T09:18:57.791Z,100330.66
2022-09-05T09:20:24.068Z,100334.66
2022-09-05T09:21:38.630Z,100331.78
2022-09-05T09:22:54.065Z,100325.34
2022-09-05T09:24:17.143Z,100328.47
2022-09-05T09:25:50.076Z,100328.28
2022-09-05T09:26:59.913Z,100325.38
2022-09-05T09:28:48.631Z,100315.72
2022-09-05T09:29:40.279Z,100327.06
2022-09-05T09:30:47.462Z,100322.72
2022-09-05T09:32:04.874Z,100325.50
2022-09-05T09:33:09.327Z,100323.03
2022-09-05T09:34:32.981Z,100318.09
2022-09-05T09:35:56.687Z,100323.41
2022-09-05T09:37:51.893Z,100320.91
2022-09-05T09:39:38.802Z,100316.03
2022-09-05T09:41:08.063Z,100316.69
2022-09-05T09:42:37.445Z,100307.25
2022-09-05T09:44:11.532Z,100312.25
2022-09-05T09:45:38.792Z,100307.41
2022-09-05T09:46:48.255Z,100301.44
2022-09-05T09:47:50.004Z,100298.72
2022-09-05T09:49:21.608Z,100294.41
2022-09-05T09:50:24.962Z,100298.31
2022-09-05T09:51:41.852Z,100292.03
2022-09-05T09:53:14.982Z,100291.09
2022-09-05T09:54:39.777Z,100291.03
2022-09-05T09:55:54.708Z,100288.72
2022-09-05T09:57:08.982Z,100295.59
2022-09-05T09:58:54.615Z,100283.75
2022-09-05T10:00:15.020Z,100280.28
2022-09-05T10:01:35.866Z,100288.50
2022-09-05T10:07:26.908Z,100286.63
2022-09-05T10:10:35.948Z,100286.53
2022-09-05T10:10:43.513Z,100290.22
2022-09-05T10:10:59.635Z,100291.38
2022-09-05T10:11:18.899Z,100287.97
2022-09-05T10:11:55.239Z,100283.25
2022-09-05T10:13:13.600Z,100284.53
2022-09-05T10:14:49.931Z,100278.88
2022-09-05T10:16:21.762Z,100286.56
2022-09-05T10:17:31.985Z,100268.97
2022-09-05T10:19:02.431Z,100273.97
2022-09-05T10:20:11.508Z,100268.56
2022-09-05T10:23:47.561Z,100267.00
2022-09-05T10:25:18.616Z,100264.94
2022-09-05T10:26:39.646Z,100258.19
2022-09-05T10:28:02.951Z,100255.41
2022-09-05T10:29:37.863Z,100254.59
2022-09-05T10:31:18.311Z,100251.63
2022-09-05T10:34:59.393Z,100250.25
2022-09-05T10:35:17.846Z,100249.81
2022-09-05T10:35:25.094Z,100253.38
2022-09-05T10:36:28.803Z,100256.25
2022-09-05T10:37:42.311Z,100244.28
2022-09-05T10:38:46.364Z,100248.63
2022-09-05T10:39:53.568Z,100247.88
2022-09-05T10:41:20.974Z,100242.53
2022-09-05T10:42:43.523Z,100252.19
2022-09-05T10:44:04.449Z,100244.13
2022-09-05T10:45:16.567Z,100246.75
2022-09-05T10:46:50.230Z,100259.22
2022-09-05T10:48:13.767Z,100247.06
2022-09-05T10:49:16.533Z,100247.88
2022-09-05T10:50:36.573Z,100241.16
2022-09-05T10:51:52.118Z,100248.38
2022-09-05T10:53:20.492Z,100240.72
2022-09-05T10:54:35.607Z,100250.28
2022-09-05T10:55:59.177Z,100248.25
2022-09-05T10:57:28.140Z,100239.00
2022-09-05T10:59:54.156Z,100244.38
2022-09-05T11:02:27.155Z,100238.94
2022-09-05T11:02:28.640Z,100254.75
2022-09-05T11:03:01.276Z,100244.88
2022-09-05T11:04:05.795Z,100241.56
2022-09-05T11:05:23.064Z,100234.78
2022-09-05T11:06:44.930Z,100227.13
2022-09-05T11:07:59.221Z,100235.97
2022-09-05T11:09:27.406Z,100237.19
2022-09-05T11:10:31.865Z,100231.63
2022-09-05T11:11:45.861Z,100223.63
2022-09-05T11:13:15.283Z,100225.81
2022-09-05T11:14:49.302Z,100215.81
2022-09-05T11:16:04.581Z,100213.09
2022-09-05T11:17:12.569Z,100210.00
2022-09-05T11:18:54.929Z,100210.66
2022-09-05T11:20:34.617Z,100203.72
2022-09-05T11:22:23.041Z,100208.84
2022-09-05T11:23:56.843Z,100206.38
2022-09-05T11:25:03.070Z,100210.63
2022-09-05T11:26:08.708Z,100200.63
2022-09-05T11:27:25.164Z,100205.66
2022-09-05T11:29:00.428Z,100198.13
2022-09-05T11:30:07.143Z,100198.97
2022-09-05T11:31:15.577Z,100198.09
2022-09-05T11:36:06.930Z,100201.00
2022-09-05T11:39:45.855Z,100192.59
2022-09-05T11:39:52.515Z,100205.91
2022-09-05T11:40:07.646Z,100196.81
2022-09-05T11:40:09.703Z,100208.47
2022-09-05T11:41:22.236Z,100195.09
2022-09-05T11:42:40.781Z,100198.94
2022-09-05T11:43:48.111Z,100195.91
2022-09-05T11:45:19.043Z,100192.38
2022-09-05T11:46:30.207Z,100196.28
2022-09-05T11:48:27.635Z,100191.09
2022-09-05T11:49:42.935Z,100187.97
2022-09-05T11:51:09.216Z,100159.16
2022-09-05T11:52:44.724Z,100181.41
2022-09-05T11:54:21.546Z,100185.81
2022-09-05T11:55:53.919Z,100189.91
2022-09-05T11:57:32.638Z,100188.19
2022-09-05T11:58:45.183Z,100181.25
2022-09-05T12:00:32.854Z,100176.38
2022-09-05T12:02:23.578Z,100175.47
2022-09-05T12:04:01.083Z,100145.19
2022-09-05T12:05:48.993Z,100171.69
2022-09-05T12:06:39.540Z,100136.09
2022-09-05T12:08:17.982Z,100168.97
2022-09-05T12:09:50.208Z,100167.22
2022-09-05T12:11:03.797Z,100162.97
2022-09-05T12:12:18.859Z,100166.13
2022-09-05T12:13:51.393Z,100159.72
2022-09-05T12:14:59.018Z,100159.84
2022-09-05T12:16:08.355Z,100152.63
2022-09-05T12:17:35.228Z,100144.03
2022-09-05T12:18:51.523Z,100150.91
2022-09-05T12:19:59.352Z,100150.34
2022-09-05T12:21:25.256Z,100151.28
2022-09-05T12:22:29.836Z,100149.75
2022-09-05T12:24:11.571Z,100150.59
2022-09-05T12:27:38.200Z,100138.38
2022-09-05T12:27:41.542Z,100140.25
2022-09-05T12:29:33.658Z,100135.69
2022-09-05T12:30:30.073Z,100135.97
2022-09-05T12:32:31.021Z,100137.81
2022-09-05T12:36:05.625Z,100132.84
2022-09-05T12:36:08.279Z,100132.38
2022-09-05T12:40:03.171Z,100127.16
2022-09-05T12:40:30.241Z,100128.56
2022-09-05T12:41:37.435Z,100125.81
2022-09-05T12:42:11.535Z,100123.50
2022-09-05T12:43:52.993Z,100127.09
2022-09-05T12:44:45.036Z,100126.59
2022-09-05T12:46:05.685Z,100128.53
2022-09-05T12:47:19.344Z,100122.00
2022-09-05T12:48:39.120Z,100125.47
2022-09-05T12:50:02.483Z,100117.97
2022-09-05T12:51:45.392Z,100121.47
2022-09-05T12:53:01.851Z,100114.94
2022-09-05T12:54:32.879Z,100111.88
2022-09-05T12:56:32.253Z,100110.03
2022-09-05T13:02:55.215Z,100114.69
2022-09-05T13:03:07.541Z,100111.66
2022-09-05T13:03:09.451Z,100109.31
2022-09-05T13:03:12.525Z,100106.28
2022-09-05T13:03:40.500Z,100105.19
2022-09-05T13:04:47.355Z,100100.13
2022-09-05T13:06:25.396Z,100103.84
2022-09-05T13:07:40.298Z,100093.38
2022-09-05T13:08:49.059Z,100096.34
2022-09-05T13:12:35.776Z,100088.44
2022-09-05T13:14:50.393Z,100102.25
2022-09-05T13:14:50.629Z,100099.25
2022-09-05T13:15:18.786Z,100097.25
2022-09-05T13:16:26.431Z,100096.03
2022-09-05T13:17:44.559Z,100091.63
2022-09-05T13:18:47.929Z,100083.16
2022-09-05T13:19:51.805Z,100086.53
2022-09-05T13:20:56.272Z,100085.75
2022-09-05T13:22:02.175Z,100087.72
2022-09-05T13:23:27.466Z,100079.44
2022-09-05T13:24:41.700Z,100073.72
2022-09-05T13:25:56.280Z,100075.84
2022-09-05T13:27:08.620Z,100087.97
2022-09-05T13:28:14.247Z,100086.66
2022-09-05T13:29:22.100Z,100086.66
2022-09-05T13:34:07.215Z,100096.53
2022-09-05T13:38:02.742Z,100086.91
2022-09-05T13:38:04.722Z,100077.13
2022-09-05T13:38:14.613Z,100085.31
2022-09-05T13:38:16.289Z,100068.44
2022-09-05T13:38:19.874Z,100090.19
2022-09-05T13:39:12.114Z,100082.88
2022-09-05T13:40:25.092Z,100077.97
2022-09-05T13:41:32.480Z,100066.47
2022-09-05T13:42:40.250Z,100079.78
2022-09-05T13:43:44.470Z,100071.53
2022-09-05T13:44:47.992Z,100076.25
2022-09-05T13:46:17.098Z,100073.50
2022-09-05T13:47:55.899Z,100070.88
2022-09-05T13:50:43.773Z,100070.56
2022-09-05T13:51:56.242Z,100069.19
2022-09-05T13:53:26.187Z,100051.75
2022-09-05T13:54:42.634Z,100052.88
2022-09-05T13:56:02.960Z,100038.38
2022-09-05T13:57:32.352Z,100057.69
2022-09-05T13:58:56.693Z,100051.06
2022-09-05T14:00:28.231Z,100051.69
2022-09-05T14:02:25.131Z,100048.16
2022-09-05T14:03:31.567Z,100053.59
2022-09-05T14:05:19.552Z,100059.84
2022-09-05T14:06:52.520Z,100056.16
2022-09-05T14:08:21.840Z,100048.09
2022-09-05T14:09:44.538Z,100043.47
2022-09-05T14:11:02.338Z,100055.97
2022-09-05T14:12:33.440Z,100042.31
2022-09-05T14:14:09.218Z,100039.34
2022-09-05T14:15:52.637Z,100048.25
2022-09-05T14:19:07.230Z,100038.25
2022-09-05T14:20:28.814Z,100039.72
2022-09-05T14:21:36.838Z,100033.41
2022-09-05T14:22:45.419Z,100027.97
2022-09-05T14:23:56.665Z,100028.72
2022-09-05T14:25:00.240Z,100034.06
2022-09-05T14:26:14.829Z,100027.78
2022-09-05T14:27:31.728Z,100032.13
2022-09-05T14:28:46.631Z,100018.47
2022-09-05T14:29:53.942Z,100028.31
2022-09-05T14:34:30.983Z,100012.31
2022-09-05T14:37:35.482Z,100024.72
2022-09-05T14:37:44.464Z,100035.88
2022-09-05T14:37:44.971Z,100028.50
2022-09-05T14:38:09.559Z,100034.25
2022-09-05T14:39:30.384Z,100025.25
2022-09-05T14:40:38.330Z,100029.63
2022-09-05T14:41:42.823Z,100032.66
2022-09-05T14:43:26.969Z,100021.81
2022-09-05T14:44:59.163Z,100023.25
2022-09-05T14:46:24.104Z,100028.44
2022-09-05T14:47:47.491Z,100032.47
2022-09-05T14:49:18.317Z,100035.66
2022-09-05T14:50:29.204Z,100027.72
2022-09-05T14:51:39.643Z,100029.06
2022-09-05T14:56:59.741Z,100026.38
2022-09-05T15:02:39.642Z,100025.47
2022-09-05T15:02:44.573Z,100027.28
2022-09-05T15:02:45.054Z,100028.34
2022-09-05T15:02:50.549Z,100013.63
2022-09-05T15:05:16.123Z,100018.63
2022-09-05T15:06:21.344Z,100025.06
2022-09-05T15:07:34.030Z,100014.59
2022-09-05T15:10:51.078Z,100021.63
2022-09-05T15:12:15.087Z,100010.91
2022-09-05T15:12:27.763Z,100015.09
2022-09-05T15:13:11.810Z,100017.69
2022-09-05T15:14:18.576Z,100015.91
2022-09-05T15:15:28.973Z,100006.31
2022-09-05T15:16:38.590Z,100011.38
2022-09-05T15:17:47.908Z,100007.09
2022-09-05T15:18:50.753Z,100006.69
2022-09-05T15:20:06.428Z,100006.00
2022-09-05T15:21:35.278Z,100005.34
2022-09-05T15:22:41.890Z,100002.38
2022-09-05T15:23:56.556Z,100006.13
2022-09-05T15:25:16.774Z,99996.56
2022-09-05T15:26:25.856Z,100008.00
2022-09-05T15:27:29.530Z,100006.69
2022-09-05T15:28:36.903Z,99971.63
2022-09-05T15:29:38.573Z,100001.66
2022-09-05T15:30:55.472Z,100003.78
2022-09-05T15:32:15.153Z,99996.16
2022-09-05T15:33:25.189Z,100000.25
2022-09-05T15:34:32.839Z,99994.19
2022-09-05T15:35:40.075Z,100001.00
2022-09-05T15:36:41.664Z,99998.25
2022-09-05T15:37:44.981Z,99994.31
2022-09-05T15:38:55.931Z,99992.25
2022-09-05T15:40:07.763Z,100000.00
2022-09-05T15:41:29.005Z,99994.59
2022-09-05T15:42:33.960Z,99987.41
2022-09-05T15:43:52.052Z,99976.06
2022-09-05T15:45:16.503Z,99990.66
2022-09-05T15:46:29.576Z,99992.38
2022-09-05T15:47:38.164Z,99987.09
2022-09-05T15:48:39.869Z,99986.16
2022-09-05T15:49:55.657Z,99988.38
2022-09-05T15:50:59.804Z,99983.66
2022-09-05T15:52:31.158Z,99981.78
2022-09-05T15:53:37.585Z,99988.16
2022-09-05T15:54:57.719Z,99984.03